sensor_id;sensor_type;location;lat;lon;timestamp;temperature;humidity
4399;DHT22;2213;49.720;7.296;2024-03-02T00:01:54;5.20;99.90
4399;DHT22;2213;49.720;7.296;2024-03-02T00:04:22;5.30;99.90
4399;DHT22;2213;49.720;7.296;2024-03-02T00:06:52;5.20;99.90
4399;DHT22;2213;49.720;7.296;2024-03-02T00:09:22;5.20;99.90
4399;DHT22;2213;49.720;7.296;2024-03-02T00:11:50;5.30;99.90
4399;DHT22;2213;49.720;7.296;2024-03-02T00:14:19;5.30;99.90
4399;DHT22;2213;49.720;7.296;2024-03-02T00:16:49;5.40;99.90
4399;DHT22;2213;49.720;7.296;2024-03-02T00:19:20;5.30;99.90
4399;DHT22;2213;49.720;7.296;2024-03-02T00:21:48;5.40;99.90
4399;DHT22;2213;49.720;7.296;2024-03-02T00:24:21;5.40;99.90
4399;DHT22;2213;49.720;7.296;2024-03-02T00:26:59;5.30;99.90
4399;DHT22;2213;49.720;7.296;2024-03-02T00:29:29;5.30;99.90
4399;DHT22;2213;49.720;7.296;2024-03-02T00:32:01;5.30;99.90
4399;DHT22;2213;49.720;7.296;2024-03-02T00:34:29;5.40;99.90
4399;DHT22;2213;49.720;7.296;2024-03-02T00:36:58;5.20;99.90
4399;DHT22;2213;49.720;7.296;2024-03-02T00:39:28;5.20;99.90
4399;DHT22;2213;49.720;7.296;2024-03-02T00:41:58;5.30;99.90
4399;DHT22;2213;49.720;7.296;2024-03-02T00:44:26;5.30;99.90
4399;DHT22;2213;49.720;7.296;2024-03-02T00:47:04;5.30;99.90
4399;DHT22;2213;49.720;7.296;2024-03-02T00:49:32;5.30;99.90
4399;DHT22;2213;49.720;7.296;2024-03-02T00:52:03;5.30;99.90
4399;DHT22;2213;49.720;7.296;2024-03-02T00:54:33;5.40;99.90
4399;DHT22;2213;49.720;7.296;2024-03-02T00:57:02;5.30;99.90
4399;DHT22;2213;49.720;7.296;2024-03-02T00:59:32;5.20;99.90
4399;DHT22;2213;49.720;7.296;2024-03-02T01:02:00;5.20;99.90
4399;DHT22;2213;49.720;7.296;2024-03-02T01:04:30;5.20;99.90
4399;DHT22;2213;49.720;7.296;2024-03-02T01:06:59;5.20;99.90
4399;DHT22;2213;49.720;7.296;2024-03-02T01:09:27;5.30;99.90
4399;DHT22;2213;49.720;7.296;2024-03-02T01:11:56;5.30;99.90
4399;DHT22;2213;49.720;7.296;2024-03-02T01:14:24;5.20;99.90
4399;DHT22;2213;49.720;7.296;2024-03-02T01:16:53;5.20;99.90
4399;DHT22;2213;49.720;7.296;2024-03-02T01:19:22;5.30;99.90
4399;DHT22;2213;49.720;7.296;2024-03-02T01:21:52;5.10;99.90
4399;DHT22;2213;49.720;7.296;2024-03-02T01:24:20;5.10;99.90
4399;DHT22;2213;49.720;7.296;2024-03-02T01:26:49;5.00;99.90
4399;DHT22;2213;49.720;7.296;2024-03-02T01:29:17;5.20;99.90
4399;DHT22;2213;49.720;7.296;2024-03-02T01:31:46;5.20;99.90
4399;DHT22;2213;49.720;7.296;2024-03-02T01:34:15;5.20;99.90
4399;DHT22;2213;49.720;7.296;2024-03-02T01:36:43;5.20;99.90
4399;DHT22;2213;49.720;7.296;2024-03-02T01:39:13;5.20;99.90
4399;DHT22;2213;49.720;7.296;2024-03-02T01:41:42;5.20;99.90
4399;DHT22;2213;49.720;7.296;2024-03-02T01:44:10;5.20;99.90
4399;DHT22;2213;49.720;7.296;2024-03-02T01:46:39;5.20;99.90
4399;DHT22;2213;49.720;7.296;2024-03-02T01:49:07;5.20;99.90
4399;DHT22;2213;49.720;7.296;2024-03-02T01:51:36;5.20;99.90
4399;DHT22;2213;49.720;7.296;2024-03-02T01:54:04;5.20;99.90
4399;DHT22;2213;49.720;7.296;2024-03-02T01:56:34;5.20;99.90
4399;DHT22;2213;49.720;7.296;2024-03-02T01:59:03;5.10;99.90
4399;DHT22;2213;49.720;7.296;2024-03-02T02:01:31;5.10;99.90
4399;DHT22;2213;49.720;7.296;2024-03-02T02:04:00;5.20;99.90
4399;DHT22;2213;49.720;7.296;2024-03-02T02:06:29;5.00;99.90
4399;DHT22;2213;49.720;7.296;2024-03-02T02:08:57;5.10;99.90
4399;DHT22;2213;49.720;7.296;2024-03-02T02:11:26;5.00;99.90
4399;DHT22;2213;49.720;7.296;2024-03-02T02:13:56;5.00;99.90
4399;DHT22;2213;49.720;7.296;2024-03-02T02:16:24;5.00;99.90
4399;DHT22;2213;49.720;7.296;2024-03-02T02:18:53;5.00;99.90
4399;DHT22;2213;49.720;7.296;2024-03-02T02:21:24;5.00;99.90
4399;DHT22;2213;49.720;7.296;2024-03-02T02:23:53;5.00;99.90
4399;DHT22;2213;49.720;7.296;2024-03-02T02:26:22;5.00;99.90
4399;DHT22;2213;49.720;7.296;2024-03-02T02:28:50;5.00;99.90
4399;DHT22;2213;49.720;7.296;2024-03-02T02:31:19;4.90;99.90
4399;DHT22;2213;49.720;7.296;2024-03-02T02:33:47;4.80;99.90
4399;DHT22;2213;49.720;7.296;2024-03-02T02:36:15;4.80;99.90
4399;DHT22;2213;49.720;7.296;2024-03-02T02:38:47;4.90;99.90
4399;DHT22;2213;49.720;7.296;2024-03-02T02:41:16;4.80;99.90
4399;DHT22;2213;49.720;7.296;2024-03-02T02:43:45;4.70;99.90
4399;DHT22;2213;49.720;7.296;2024-03-02T02:46:13;4.70;99.90
4399;DHT22;2213;49.720;7.296;2024-03-02T02:48:42;4.70;99.90
4399;DHT22;2213;49.720;7.296;2024-03-02T02:51:10;4.60;99.90
4399;DHT22;2213;49.720;7.296;2024-03-02T02:53:39;4.60;99.90
4399;DHT22;2213;49.720;7.296;2024-03-02T02:56:09;4.60;99.90
4399;DHT22;2213;49.720;7.296;2024-03-02T02:58:39;4.60;99.90
4399;DHT22;2213;49.720;7.296;2024-03-02T03:01:08;4.60;99.90
4399;DHT22;2213;49.720;7.296;2024-03-02T03:03:36;4.50;99.90
4399;DHT22;2213;49.720;7.296;2024-03-02T03:06:05;4.40;99.90
4399;DHT22;2213;49.720;7.296;2024-03-02T03:08:33;4.40;99.90
4399;DHT22;2213;49.720;7.296;2024-03-02T03:11:02;4.40;99.90
4399;DHT22;2213;49.720;7.296;2024-03-02T03:13:33;4.40;99.90
4399;DHT22;2213;49.720;7.296;2024-03-02T03:16:02;4.40;99.90
4399;DHT22;2213;49.720;7.296;2024-03-02T03:18:32;4.50;99.90
4399;DHT22;2213;49.720;7.296;2024-03-02T03:21:00;4.60;99.90
4399;DHT22;2213;49.720;7.296;2024-03-02T03:23:29;4.50;99.90
4399;DHT22;2213;49.720;7.296;2024-03-02T03:25:57;4.60;99.90
4399;DHT22;2213;49.720;7.296;2024-03-02T03:28:26;4.50;99.90
4399;DHT22;2213;49.720;7.296;2024-03-02T03:30:55;4.60;99.90
4399;DHT22;2213;49.720;7.296;2024-03-02T03:33:24;4.60;99.90
4399;DHT22;2213;49.720;7.296;2024-03-02T03:35:52;4.60;99.90
4399;DHT22;2213;49.720;7.296;2024-03-02T03:38:21;4.60;99.90
4399;DHT22;2213;49.720;7.296;2024-03-02T03:40:49;4.70;99.90
4399;DHT22;2213;49.720;7.296;2024-03-02T03:43:18;4.70;99.90
4399;DHT22;2213;49.720;7.296;2024-03-02T03:45:46;4.90;99.90
4399;DHT22;2213;49.720;7.296;2024-03-02T03:48:16;4.90;99.90
4399;DHT22;2213;49.720;7.296;2024-03-02T03:50:45;4.80;99.90
4399;DHT22;2213;49.720;7.296;2024-03-02T03:53:14;4.80;99.90
4399;DHT22;2213;49.720;7.296;2024-03-02T03:55:42;4.80;99.90
4399;DHT22;2213;49.720;7.296;2024-03-02T03:58:13;4.90;99.90
4399;DHT22;2213;49.720;7.296;2024-03-02T04:00:46;4.90;99.90
4399;DHT22;2213;49.720;7.296;2024-03-02T04:03:16;4.90;99.90
4399;DHT22;2213;49.720;7.296;2024-03-02T04:05:44;4.80;99.90
4399;DHT22;2213;49.720;7.296;2024-03-02T04:08:13;4.90;99.90
4399;DHT22;2213;49.720;7.296;2024-03-02T04:10:41;4.90;99.90
4399;DHT22;2213;49.720;7.296;2024-03-02T04:13:10;5.00;99.90
4399;DHT22;2213;49.720;7.296;2024-03-02T04:15:38;4.90;99.90
4399;DHT22;2213;49.720;7.296;2024-03-02T04:18:07;4.80;99.90
4399;DHT22;2213;49.720;7.296;2024-03-02T04:20:37;4.80;99.90
4399;DHT22;2213;49.720;7.296;2024-03-02T04:23:06;4.80;99.90
4399;DHT22;2213;49.720;7.296;2024-03-02T04:25:34;4.80;99.90
4399;DHT22;2213;49.720;7.296;2024-03-02T04:28:03;4.90;99.90
4399;DHT22;2213;49.720;7.296;2024-03-02T04:30:32;4.80;99.90
4399;DHT22;2213;49.720;7.296;2024-03-02T04:33:00;4.80;99.90
4399;DHT22;2213;49.720;7.296;2024-03-02T04:35:29;4.80;99.90
4399;DHT22;2213;49.720;7.296;2024-03-02T04:37:59;4.90;99.90
4399;DHT22;2213;49.720;7.296;2024-03-02T04:40:27;4.80;99.90
4399;DHT22;2213;49.720;7.296;2024-03-02T04:42:56;4.80;99.90
4399;DHT22;2213;49.720;7.296;2024-03-02T04:45:26;4.90;99.90
4399;DHT22;2213;49.720;7.296;2024-03-02T04:47:54;4.80;99.90
4399;DHT22;2213;49.720;7.296;2024-03-02T04:50:22;4.80;99.90
4399;DHT22;2213;49.720;7.296;2024-03-02T04:52:51;4.90;99.90
4399;DHT22;2213;49.720;7.296;2024-03-02T04:55:21;4.90;99.90
4399;DHT22;2213;49.720;7.296;2024-03-02T04:58:12;4.90;99.90
4399;DHT22;2213;49.720;7.296;2024-03-02T05:00:40;4.80;99.90
4399;DHT22;2213;49.720;7.296;2024-03-02T05:03:09;4.90;99.90
4399;DHT22;2213;49.720;7.296;2024-03-02T05:05:38;4.80;99.90
4399;DHT22;2213;49.720;7.296;2024-03-02T05:08:07;4.90;99.90
4399;DHT22;2213;49.720;7.296;2024-03-02T05:10:37;4.90;99.90
4399;DHT22;2213;49.720;7.296;2024-03-02T05:13:05;5.00;99.90
4399;DHT22;2213;49.720;7.296;2024-03-02T05:15:34;5.00;99.90
4399;DHT22;2213;49.720;7.296;2024-03-02T05:18:03;5.00;99.90
4399;DHT22;2213;49.720;7.296;2024-03-02T05:20:32;4.90;99.90
4399;DHT22;2213;49.720;7.296;2024-03-02T05:23:00;4.90;99.90
4399;DHT22;2213;49.720;7.296;2024-03-02T05:25:29;4.90;99.90
4399;DHT22;2213;49.720;7.296;2024-03-02T05:27:59;4.80;99.90
4399;DHT22;2213;49.720;7.296;2024-03-02T05:30:27;4.80;99.90
4399;DHT22;2213;49.720;7.296;2024-03-02T05:32:56;4.80;99.90
4399;DHT22;2213;49.720;7.296;2024-03-02T05:35:25;4.80;99.90
4399;DHT22;2213;49.720;7.296;2024-03-02T05:37:53;4.70;99.90
4399;DHT22;2213;49.720;7.296;2024-03-02T05:40:21;4.80;99.90
4399;DHT22;2213;49.720;7.296;2024-03-02T05:42:50;4.80;99.90
4399;DHT22;2213;49.720;7.296;2024-03-02T05:45:20;4.80;99.90
4399;DHT22;2213;49.720;7.296;2024-03-02T05:47:49;4.70;99.90
4399;DHT22;2213;49.720;7.296;2024-03-02T05:50:17;4.50;99.90
4399;DHT22;2213;49.720;7.296;2024-03-02T05:52:46;4.50;99.90
4399;DHT22;2213;49.720;7.296;2024-03-02T05:55:15;4.50;99.90
4399;DHT22;2213;49.720;7.296;2024-03-02T05:57:43;4.50;99.90
4399;DHT22;2213;49.720;7.296;2024-03-02T06:00:27;4.50;99.90
4399;DHT22;2213;49.720;7.296;2024-03-02T06:02:57;4.50;99.90
4399;DHT22;2213;49.720;7.296;2024-03-02T06:05:26;4.50;99.90
4399;DHT22;2213;49.720;7.296;2024-03-02T06:07:55;4.50;99.90
4399;DHT22;2213;49.720;7.296;2024-03-02T06:10:24;4.50;99.90
4399;DHT22;2213;49.720;7.296;2024-03-02T06:12:52;4.50;99.90
4399;DHT22;2213;49.720;7.296;2024-03-02T06:15:21;4.40;99.90
4399;DHT22;2213;49.720;7.296;2024-03-02T06:17:51;4.50;99.90
4399;DHT22;2213;49.720;7.296;2024-03-02T06:20:19;4.50;99.90
4399;DHT22;2213;49.720;7.296;2024-03-02T06:22:48;4.50;99.90
4399;DHT22;2213;49.720;7.296;2024-03-02T06:25:16;4.50;99.90
4399;DHT22;2213;49.720;7.296;2024-03-02T06:27:45;4.40;99.90
4399;DHT22;2213;49.720;7.296;2024-03-02T06:30:14;4.50;99.90
4399;DHT22;2213;49.720;7.296;2024-03-02T06:32:43;4.50;99.90
4399;DHT22;2213;49.720;7.296;2024-03-02T06:35:13;4.60;99.90
4399;DHT22;2213;49.720;7.296;2024-03-02T06:37:41;4.60;99.90
4399;DHT22;2213;49.720;7.296;2024-03-02T06:40:10;4.60;99.90
4399;DHT22;2213;49.720;7.296;2024-03-02T06:42:39;4.60;99.90
4399;DHT22;2213;49.720;7.296;2024-03-02T06:45:07;4.60;99.90
4399;DHT22;2213;49.720;7.296;2024-03-02T06:47:36;4.70;99.90
4399;DHT22;2213;49.720;7.296;2024-03-02T06:50:05;4.70;99.90
4399;DHT22;2213;49.720;7.296;2024-03-02T06:52:36;4.70;99.90
4399;DHT22;2213;49.720;7.296;2024-03-02T06:55:06;4.80;99.90
4399;DHT22;2213;49.720;7.296;2024-03-02T06:57:35;4.80;99.90
4399;DHT22;2213;49.720;7.296;2024-03-02T07:00:04;4.80;99.90
4399;DHT22;2213;49.720;7.296;2024-03-02T07:02:36;4.80;99.90
4399;DHT22;2213;49.720;7.296;2024-03-02T07:05:05;4.90;99.90
4399;DHT22;2213;49.720;7.296;2024-03-02T07:07:35;4.80;99.90
4399;DHT22;2213;49.720;7.296;2024-03-02T07:10:05;4.90;99.90
4399;DHT22;2213;49.720;7.296;2024-03-02T07:12:34;4.90;99.90
4399;DHT22;2213;49.720;7.296;2024-03-02T07:15:04;5.00;99.90
4399;DHT22;2213;49.720;7.296;2024-03-02T07:17:48;5.00;99.90
4399;DHT22;2213;49.720;7.296;2024-03-02T07:20:17;5.10;99.90
4399;DHT22;2213;49.720;7.296;2024-03-02T07:22:47;5.20;99.90
4399;DHT22;2213;49.720;7.296;2024-03-02T07:25:16;5.20;99.90
4399;DHT22;2213;49.720;7.296;2024-03-02T07:27:47;5.20;99.90
4399;DHT22;2213;49.720;7.296;2024-03-02T07:30:16;5.20;99.90
4399;DHT22;2213;49.720;7.296;2024-03-02T07:32:44;5.20;99.90
4399;DHT22;2213;49.720;7.296;2024-03-02T07:35:14;5.20;99.90
4399;DHT22;2213;49.720;7.296;2024-03-02T07:37:43;5.40;99.90
4399;DHT22;2213;49.720;7.296;2024-03-02T07:40:13;5.40;99.90
4399;DHT22;2213;49.720;7.296;2024-03-02T07:42:42;5.40;99.90
4399;DHT22;2213;49.720;7.296;2024-03-02T07:45:11;5.40;99.90
4399;DHT22;2213;49.720;7.296;2024-03-02T07:47:40;5.40;99.90
4399;DHT22;2213;49.720;7.296;2024-03-02T07:50:09;5.40;99.90
4399;DHT22;2213;49.720;7.296;2024-03-02T07:52:38;5.50;99.90
4399;DHT22;2213;49.720;7.296;2024-03-02T07:55:07;5.60;99.90
4399;DHT22;2213;49.720;7.296;2024-03-02T07:57:37;5.60;99.90
4399;DHT22;2213;49.720;7.296;2024-03-02T08:00:07;5.60;99.90
4399;DHT22;2213;49.720;7.296;2024-03-02T08:02:36;5.70;99.90
4399;DHT22;2213;49.720;7.296;2024-03-02T08:05:05;5.80;99.90
4399;DHT22;2213;49.720;7.296;2024-03-02T08:07:36;5.80;99.90
4399;DHT22;2213;49.720;7.296;2024-03-02T08:10:06;5.90;99.90
4399;DHT22;2213;49.720;7.296;2024-03-02T08:12:36;5.90;99.90
4399;DHT22;2213;49.720;7.296;2024-03-02T08:15:06;6.00;99.90
4399;DHT22;2213;49.720;7.296;2024-03-02T08:17:35;6.10;99.90
4399;DHT22;2213;49.720;7.296;2024-03-02T08:20:06;6.20;99.90
4399;DHT22;2213;49.720;7.296;2024-03-02T08:22:35;6.20;99.90
4399;DHT22;2213;49.720;7.296;2024-03-02T08:25:05;6.30;99.90
4399;DHT22;2213;49.720;7.296;2024-03-02T08:27:35;6.40;99.90
4399;DHT22;2213;49.720;7.296;2024-03-02T08:30:06;6.40;99.90
4399;DHT22;2213;49.720;7.296;2024-03-02T08:32:37;6.40;99.90
4399;DHT22;2213;49.720;7.296;2024-03-02T08:35:07;6.40;99.90
4399;DHT22;2213;49.720;7.296;2024-03-02T08:37:38;6.40;99.90
4399;DHT22;2213;49.720;7.296;2024-03-02T08:40:08;6.50;99.90
4399;DHT22;2213;49.720;7.296;2024-03-02T08:42:43;6.60;99.90
4399;DHT22;2213;49.720;7.296;2024-03-02T08:45:13;6.70;99.90
4399;DHT22;2213;49.720;7.296;2024-03-02T08:47:41;6.70;99.90
4399;DHT22;2213;49.720;7.296;2024-03-02T08:50:10;6.90;99.90
4399;DHT22;2213;49.720;7.296;2024-03-02T08:52:39;6.90;99.90
4399;DHT22;2213;49.720;7.296;2024-03-02T08:55:08;6.90;99.90
4399;DHT22;2213;49.720;7.296;2024-03-02T08:57:38;6.90;99.90
4399;DHT22;2213;49.720;7.296;2024-03-02T09:00:09;6.90;99.90
4399;DHT22;2213;49.720;7.296;2024-03-02T09:02:38;6.90;99.90
4399;DHT22;2213;49.720;7.296;2024-03-02T09:05:07;7.00;99.90
4399;DHT22;2213;49.720;7.296;2024-03-02T09:07:36;7.10;99.90
4399;DHT22;2213;49.720;7.296;2024-03-02T09:10:07;7.10;99.90
4399;DHT22;2213;49.720;7.296;2024-03-02T09:12:38;7.20;99.90
4399;DHT22;2213;49.720;7.296;2024-03-02T09:15:08;7.20;99.90
4399;DHT22;2213;49.720;7.296;2024-03-02T09:17:37;7.30;99.90
4399;DHT22;2213;49.720;7.296;2024-03-02T09:20:06;7.30;99.90
4399;DHT22;2213;49.720;7.296;2024-03-02T09:22:35;7.40;99.90
4399;DHT22;2213;49.720;7.296;2024-03-02T09:25:04;7.40;99.90
4399;DHT22;2213;49.720;7.296;2024-03-02T09:27:36;7.50;99.90
4399;DHT22;2213;49.720;7.296;2024-03-02T09:30:09;7.60;99.90
4399;DHT22;2213;49.720;7.296;2024-03-02T09:32:38;7.70;99.90
4399;DHT22;2213;49.720;7.296;2024-03-02T09:35:07;7.70;99.90
4399;DHT22;2213;49.720;7.296;2024-03-02T09:37:36;7.80;99.90
4399;DHT22;2213;49.720;7.296;2024-03-02T09:40:06;7.90;99.90
4399;DHT22;2213;49.720;7.296;2024-03-02T09:42:35;7.90;99.90
4399;DHT22;2213;49.720;7.296;2024-03-02T09:45:05;8.00;99.90
4399;DHT22;2213;49.720;7.296;2024-03-02T09:47:36;8.00;99.90
4399;DHT22;2213;49.720;7.296;2024-03-02T09:50:05;8.00;99.90
4399;DHT22;2213;49.720;7.296;2024-03-02T09:52:36;8.10;99.90
4399;DHT22;2213;49.720;7.296;2024-03-02T09:55:06;8.20;99.90
4399;DHT22;2213;49.720;7.296;2024-03-02T09:57:36;8.20;99.90
4399;DHT22;2213;49.720;7.296;2024-03-02T10:00:08;8.20;99.90
4399;DHT22;2213;49.720;7.296;2024-03-02T10:02:43;8.30;99.90
4399;DHT22;2213;49.720;7.296;2024-03-02T10:05:12;8.40;99.90
4399;DHT22;2213;49.720;7.296;2024-03-02T10:07:41;8.50;99.90
4399;DHT22;2213;49.720;7.296;2024-03-02T10:10:14;8.60;99.90
4399;DHT22;2213;49.720;7.296;2024-03-02T10:12:45;8.60;99.90
4399;DHT22;2213;49.720;7.296;2024-03-02T10:15:13;8.70;99.90
4399;DHT22;2213;49.720;7.296;2024-03-02T10:17:53;8.70;99.90
4399;DHT22;2213;49.720;7.296;2024-03-02T10:20:22;8.70;99.90
4399;DHT22;2213;49.720;7.296;2024-03-02T10:22:52;8.70;99.90
4399;DHT22;2213;49.720;7.296;2024-03-02T10:25:30;8.60;99.90
4399;DHT22;2213;49.720;7.296;2024-03-02T10:28:04;8.70;99.90
4399;DHT22;2213;49.720;7.296;2024-03-02T10:30:33;8.70;99.90
4399;DHT22;2213;49.720;7.296;2024-03-02T10:33:05;9.00;99.90
4399;DHT22;2213;49.720;7.296;2024-03-02T10:35:34;9.10;99.90
4399;DHT22;2213;49.720;7.296;2024-03-02T10:38:05;9.10;99.90
4399;DHT22;2213;49.720;7.296;2024-03-02T10:40:34;9.20;99.90
4399;DHT22;2213;49.720;7.296;2024-03-02T10:43:03;9.30;99.90
4399;DHT22;2213;49.720;7.296;2024-03-02T10:45:34;9.30;99.90
4399;DHT22;2213;49.720;7.296;2024-03-02T10:48:06;9.50;99.90
4399;DHT22;2213;49.720;7.296;2024-03-02T10:50:35;9.40;99.90
4399;DHT22;2213;49.720;7.296;2024-03-02T10:53:04;9.50;99.90
4399;DHT22;2213;49.720;7.296;2024-03-02T10:55:33;9.60;99.90
4399;DHT22;2213;49.720;7.296;2024-03-02T10:58:04;9.70;99.90
4399;DHT22;2213;49.720;7.296;2024-03-02T11:00:34;9.80;99.90
4399;DHT22;2213;49.720;7.296;2024-03-02T11:03:09;9.70;99.90
4399;DHT22;2213;49.720;7.296;2024-03-02T11:05:44;9.90;99.90
4399;DHT22;2213;49.720;7.296;2024-03-02T11:08:15;9.80;99.90
4399;DHT22;2213;49.720;7.296;2024-03-02T11:10:50;9.90;99.90
4399;DHT22;2213;49.720;7.296;2024-03-02T11:13:31;9.90;99.90
4399;DHT22;2213;49.720;7.296;2024-03-02T11:16:09;9.90;99.90
4399;DHT22;2213;49.720;7.296;2024-03-02T11:18:49;10.00;99.90
4399;DHT22;2213;49.720;7.296;2024-03-02T11:21:18;10.00;99.90
4399;DHT22;2213;49.720;7.296;2024-03-02T11:23:47;10.10;99.90
4399;DHT22;2213;49.720;7.296;2024-03-02T11:26:19;10.20;99.90
4399;DHT22;2213;49.720;7.296;2024-03-02T11:28:48;10.20;99.90
4399;DHT22;2213;49.720;7.296;2024-03-02T11:31:17;10.30;99.90
4399;DHT22;2213;49.720;7.296;2024-03-02T11:33:46;10.40;99.90
4399;DHT22;2213;49.720;7.296;2024-03-02T11:36:16;10.40;99.90
4399;DHT22;2213;49.720;7.296;2024-03-02T11:38:45;10.50;99.90
4399;DHT22;2213;49.720;7.296;2024-03-02T11:41:15;10.60;99.90
4399;DHT22;2213;49.720;7.296;2024-03-02T11:43:44;10.60;99.90
4399;DHT22;2213;49.720;7.296;2024-03-02T11:46:15;10.80;99.90
4399;DHT22;2213;49.720;7.296;2024-03-02T11:48:43;10.90;99.90
4399;DHT22;2213;49.720;7.296;2024-03-02T11:51:12;11.00;99.90
4399;DHT22;2213;49.720;7.296;2024-03-02T11:53:44;10.90;99.90
4399;DHT22;2213;49.720;7.296;2024-03-02T11:56:15;10.90;99.90
4399;DHT22;2213;49.720;7.296;2024-03-02T11:58:46;11.10;99.90
4399;DHT22;2213;49.720;7.296;2024-03-02T12:01:16;11.20;99.90
4399;DHT22;2213;49.720;7.296;2024-03-02T12:03:45;11.30;99.90
4399;DHT22;2213;49.720;7.296;2024-03-02T12:06:15;11.40;99.90
4399;DHT22;2213;49.720;7.296;2024-03-02T12:08:52;11.40;99.90
4399;DHT22;2213;49.720;7.296;2024-03-02T12:11:21;11.40;99.90
4399;DHT22;2213;49.720;7.296;2024-03-02T12:13:53;11.50;99.90
4399;DHT22;2213;49.720;7.296;2024-03-02T12:16:24;11.40;99.90
4399;DHT22;2213;49.720;7.296;2024-03-02T12:18:52;11.50;99.90
4399;DHT22;2213;49.720;7.296;2024-03-02T12:21:21;11.50;99.90
4399;DHT22;2213;49.720;7.296;2024-03-02T12:23:51;11.50;99.90
4399;DHT22;2213;49.720;7.296;2024-03-02T12:26:20;11.50;99.90
4399;DHT22;2213;49.720;7.296;2024-03-02T12:28:50;11.50;99.90
4399;DHT22;2213;49.720;7.296;2024-03-02T12:31:18;11.50;99.90
4399;DHT22;2213;49.720;7.296;2024-03-02T12:33:47;11.50;99.90
4399;DHT22;2213;49.720;7.296;2024-03-02T12:36:16;11.50;99.90
4399;DHT22;2213;49.720;7.296;2024-03-02T12:38:46;11.50;99.90
4399;DHT22;2213;49.720;7.296;2024-03-02T12:41:16;11.50;99.90
4399;DHT22;2213;49.720;7.296;2024-03-02T12:43:45;11.60;99.90
4399;DHT22;2213;49.720;7.296;2024-03-02T12:46:14;11.50;99.90
4399;DHT22;2213;49.720;7.296;2024-03-02T12:48:43;11.60;99.90
4399;DHT22;2213;49.720;7.296;2024-03-02T12:51:12;11.70;99.90
4399;DHT22;2213;49.720;7.296;2024-03-02T12:53:41;11.70;99.90
4399;DHT22;2213;49.720;7.296;2024-03-02T12:56:10;11.70;99.90
4399;DHT22;2213;49.720;7.296;2024-03-02T12:58:40;11.70;99.90
4399;DHT22;2213;49.720;7.296;2024-03-02T13:01:09;11.70;99.90
4399;DHT22;2213;49.720;7.296;2024-03-02T13:03:39;11.70;99.90
4399;DHT22;2213;49.720;7.296;2024-03-02T13:06:07;11.70;99.90
4399;DHT22;2213;49.720;7.296;2024-03-02T13:08:36;11.90;99.90
4399;DHT22;2213;49.720;7.296;2024-03-02T13:11:06;11.90;99.90
4399;DHT22;2213;49.720;7.296;2024-03-02T13:13:35;12.00;99.90
4399;DHT22;2213;49.720;7.296;2024-03-02T13:16:08;12.00;99.90
4399;DHT22;2213;49.720;7.296;2024-03-02T13:18:38;12.00;99.90
4399;DHT22;2213;49.720;7.296;2024-03-02T13:21:07;12.00;99.90
4399;DHT22;2213;49.720;7.296;2024-03-02T13:23:36;12.10;99.90
4399;DHT22;2213;49.720;7.296;2024-03-02T13:26:05;12.10;99.90
4399;DHT22;2213;49.720;7.296;2024-03-02T13:28:34;12.10;99.90
4399;DHT22;2213;49.720;7.296;2024-03-02T13:31:03;12.10;99.90
4399;DHT22;2213;49.720;7.296;2024-03-02T13:33:34;12.10;99.90
4399;DHT22;2213;49.720;7.296;2024-03-02T13:36:03;12.00;99.90
4399;DHT22;2213;49.720;7.296;2024-03-02T13:38:32;12.00;99.90
4399;DHT22;2213;49.720;7.296;2024-03-02T13:41:00;12.00;99.90
4399;DHT22;2213;49.720;7.296;2024-03-02T13:43:29;12.00;99.90
4399;DHT22;2213;49.720;7.296;2024-03-02T13:45:59;12.00;99.90
4399;DHT22;2213;49.720;7.296;2024-03-02T13:48:27;12.00;99.90
4399;DHT22;2213;49.720;7.296;2024-03-02T13:50:58;11.90;99.90
4399;DHT22;2213;49.720;7.296;2024-03-02T13:53:27;12.00;99.90
4399;DHT22;2213;49.720;7.296;2024-03-02T13:55:56;12.00;99.90
4399;DHT22;2213;49.720;7.296;2024-03-02T13:58:24;12.00;99.90
4399;DHT22;2213;49.720;7.296;2024-03-02T14:00:54;11.90;99.90
4399;DHT22;2213;49.720;7.296;2024-03-02T14:03:23;11.90;99.90
4399;DHT22;2213;49.720;7.296;2024-03-02T14:05:58;11.90;99.90
4399;DHT22;2213;49.720;7.296;2024-03-02T14:08:27;11.90;99.90
4399;DHT22;2213;49.720;7.296;2024-03-02T14:10:56;11.90;99.90
4399;DHT22;2213;49.720;7.296;2024-03-02T14:13:27;12.00;99.90
4399;DHT22;2213;49.720;7.296;2024-03-02T14:15:55;12.00;99.90
4399;DHT22;2213;49.720;7.296;2024-03-02T14:18:25;12.00;99.90
4399;DHT22;2213;49.720;7.296;2024-03-02T14:20:53;12.10;99.90
4399;DHT22;2213;49.720;7.296;2024-03-02T14:23:24;12.10;99.90
4399;DHT22;2213;49.720;7.296;2024-03-02T14:25:55;12.10;99.90
4399;DHT22;2213;49.720;7.296;2024-03-02T14:28:26;12.10;99.90
4399;DHT22;2213;49.720;7.296;2024-03-02T14:31:14;12.10;99.90
4399;DHT22;2213;49.720;7.296;2024-03-02T14:33:43;12.10;99.90
4399;DHT22;2213;49.720;7.296;2024-03-02T14:36:11;12.20;99.90
4399;DHT22;2213;49.720;7.296;2024-03-02T14:38:41;12.10;99.90
4399;DHT22;2213;49.720;7.296;2024-03-02T14:41:10;12.10;99.90
4399;DHT22;2213;49.720;7.296;2024-03-02T14:43:38;12.10;99.90
4399;DHT22;2213;49.720;7.296;2024-03-02T14:46:07;12.20;99.90
4399;DHT22;2213;49.720;7.296;2024-03-02T14:48:36;12.10;99.90
4399;DHT22;2213;49.720;7.296;2024-03-02T14:51:06;12.10;99.90
4399;DHT22;2213;49.720;7.296;2024-03-02T14:53:34;12.10;99.90
4399;DHT22;2213;49.720;7.296;2024-03-02T14:56:05;12.10;99.90
4399;DHT22;2213;49.720;7.296;2024-03-02T14:58:34;12.00;99.90
4399;DHT22;2213;49.720;7.296;2024-03-02T15:01:04;12.10;99.90
4399;DHT22;2213;49.720;7.296;2024-03-02T15:03:33;12.10;99.90
4399;DHT22;2213;49.720;7.296;2024-03-02T15:06:03;12.10;99.90
4399;DHT22;2213;49.720;7.296;2024-03-02T15:08:34;12.10;99.90
4399;DHT22;2213;49.720;7.296;2024-03-02T15:11:02;12.00;99.90
4399;DHT22;2213;49.720;7.296;2024-03-02T15:13:32;12.00;99.90
4399;DHT22;2213;49.720;7.296;2024-03-02T15:16:02;12.00;99.90
4399;DHT22;2213;49.720;7.296;2024-03-02T15:18:30;12.00;99.90
4399;DHT22;2213;49.720;7.296;2024-03-02T15:20:59;11.90;99.90
4399;DHT22;2213;49.720;7.296;2024-03-02T15:23:27;11.90;99.90
4399;DHT22;2213;49.720;7.296;2024-03-02T15:25:57;12.00;99.90
4399;DHT22;2213;49.720;7.296;2024-03-02T15:28:27;12.00;99.90
4399;DHT22;2213;49.720;7.296;2024-03-02T15:30:56;12.00;99.90
4399;DHT22;2213;49.720;7.296;2024-03-02T15:33:25;12.10;99.90
4399;DHT22;2213;49.720;7.296;2024-03-02T15:35:58;12.00;99.90
4399;DHT22;2213;49.720;7.296;2024-03-02T15:38:28;12.00;99.90
4399;DHT22;2213;49.720;7.296;2024-03-02T15:41:02;12.10;99.90
4399;DHT22;2213;49.720;7.296;2024-03-02T15:43:32;12.10;99.90
4399;DHT22;2213;49.720;7.296;2024-03-02T15:46:03;12.10;99.90
4399;DHT22;2213;49.720;7.296;2024-03-02T15:48:32;12.00;99.90
4399;DHT22;2213;49.720;7.296;2024-03-02T15:51:01;12.10;99.90
4399;DHT22;2213;49.720;7.296;2024-03-02T15:53:33;12.10;99.90
4399;DHT22;2213;49.720;7.296;2024-03-02T15:56:02;12.10;99.90
4399;DHT22;2213;49.720;7.296;2024-03-02T15:58:36;12.10;99.90
4399;DHT22;2213;49.720;7.296;2024-03-02T16:01:05;12.10;99.90
4399;DHT22;2213;49.720;7.296;2024-03-02T16:03:34;12.00;99.90
4399;DHT22;2213;49.720;7.296;2024-03-02T16:06:03;12.10;99.90
4399;DHT22;2213;49.720;7.296;2024-03-02T16:08:32;12.10;99.90
4399;DHT22;2213;49.720;7.296;2024-03-02T16:11:01;12.10;99.90
4399;DHT22;2213;49.720;7.296;2024-03-02T16:13:30;12.10;99.90
4399;DHT22;2213;49.720;7.296;2024-03-02T16:16:00;12.00;99.90
4399;DHT22;2213;49.720;7.296;2024-03-02T16:18:29;12.00;99.90
4399;DHT22;2213;49.720;7.296;2024-03-02T16:20:57;12.10;99.90
4399;DHT22;2213;49.720;7.296;2024-03-02T16:23:26;12.10;99.90
4399;DHT22;2213;49.720;7.296;2024-03-02T16:25:54;12.10;99.90
4399;DHT22;2213;49.720;7.296;2024-03-02T16:28:23;12.10;99.90